createdAt,value
2018-12-02T06:05:39.742Z,8.14
2018-12-02T06:10:43.840Z,8.04
2018-12-02T06:15:47.217Z,8.27
2018-12-02T06:20:51.310Z,8.27
2018-12-02T06:25:55.416Z,8.31
2018-12-02T06:30:58.761Z,8.40
2018-12-02T06:36:02.856Z,8.39
2018-12-02T06:41:06.201Z,8.44
2018-12-02T06:46:10.294Z,8.47
2018-12-02T06:51:13.639Z,8.59
2018-12-02T06:56:20.057Z,8.67
2018-12-02T07:01:24.056Z,8.71
2018-12-02T07:06:27.392Z,8.76
2018-12-02T07:11:38.624Z,8.65
2018-12-02T07:16:41.952Z,8.73
2018-12-02T07:21:46.439Z,8.62
2018-12-02T07:26:53.001Z,8.71
2018-12-02T07:31:56.347Z,8.78
2018-12-02T07:36:59.673Z,8.86
2018-12-02T07:42:03.013Z,8.79
2018-12-02T07:47:07.106Z,8.86
2018-12-02T07:52:10.445Z,8.87
2018-12-02T07:57:13.788Z,8.95
2018-12-02T08:02:18.214Z,9.01
2018-12-02T08:07:20.593Z,9.04
2018-12-02T08:12:24.692Z,9.03
2018-12-02T08:17:28.048Z,8.90
2018-12-02T08:22:35.008Z,9.02
2018-12-02T08:27:39.176Z,9.06
2018-12-02T08:32:42.514Z,9.17
2018-12-02T08:37:45.851Z,9.17
2018-12-02T08:42:49.451Z,9.16
2018-12-02T08:47:53.047Z,9.05
2018-12-02T08:52:56.642Z,9.13
2018-12-02T08:58:03.129Z,9.04
2018-12-02T09:03:07.479Z,9.11
2018-12-02T09:08:17.501Z,9.19
2018-12-02T09:13:25.768Z,9.19
2018-12-02T09:18:32.550Z,9.03
2018-12-02T09:23:38.355Z,8.95
2018-12-02T09:28:43.634Z,8.72
2018-12-02T09:33:49.457Z,8.97
2018-12-02T09:38:53.059Z,9.04
2018-12-02T09:43:56.675Z,8.86
2018-12-02T09:49:00.315Z,9.14
2018-12-02T09:54:04.063Z,9.19
2018-12-02T09:59:07.850Z,9.30
2018-12-02T10:04:11.671Z,9.45
2018-12-02T10:09:15.878Z,9.53
2018-12-02T10:14:20.113Z,9.52
2018-12-02T10:19:23.883Z,9.51
2018-12-02T10:24:27.996Z,9.52
2018-12-02T10:29:32.802Z,9.61
2018-12-02T10:34:36.688Z,9.65
2018-12-02T10:39:40.396Z,9.78
2018-12-02T10:44:44.072Z,9.77
2018-12-02T10:49:47.922Z,9.80
2018-12-02T10:54:51.638Z,9.87
2018-12-02T11:00:16.922Z,9.72
2018-12-02T11:05:21.855Z,9.90
2018-12-02T11:10:26.144Z,9.99
2018-12-02T11:15:29.773Z,10.05
2018-12-02T11:20:33.371Z,10.05
2018-12-02T11:25:36.726Z,10.01
2018-12-02T11:30:40.814Z,9.88
2018-12-02T11:35:44.361Z,9.90
2018-12-02T11:40:47.950Z,9.99
2018-12-02T11:45:51.582Z,9.85
2018-12-02T11:50:55.065Z,9.84
2018-12-02T11:55:59.180Z,9.89
2018-12-02T12:01:10.453Z,9.93
2018-12-02T12:06:13.901Z,10.12
2018-12-02T12:11:18.133Z,10.18
2018-12-02T12:16:22.496Z,10.15
2018-12-02T12:21:26.071Z,10.04
2018-12-02T12:26:29.565Z,10.11
2018-12-02T12:31:32.946Z,10.01
2018-12-02T12:36:43.768Z,10.37
2018-12-02T12:41:50.065Z,10.53
2018-12-02T12:46:53.464Z,10.54
2018-12-02T12:51:56.812Z,10.44
2018-12-02T12:57:00.161Z,10.55
2018-12-02T13:02:03.550Z,10.62
2018-12-02T13:07:06.907Z,10.75
2018-12-02T13:12:10.539Z,10.89
2018-12-02T13:17:13.913Z,11.21
2018-12-02T13:22:17.280Z,11.32
2018-12-02T13:27:22.401Z,11.28
2018-12-02T13:32:30.533Z,11.55
2018-12-02T13:37:36.899Z,11.66
2018-12-02T13:42:41.040Z,12.19
2018-12-02T13:47:44.396Z,12.25
2018-12-02T13:52:47.738Z,12.48
2018-12-02T13:57:51.090Z,12.63
2018-12-02T14:02:54.423Z,12.68
2018-12-02T14:08:01.618Z,12.68
2018-12-02T14:13:04.970Z,12.90
2018-12-02T14:18:08.877Z,12.98
2018-12-02T14:23:12.240Z,13.09
2018-12-02T14:28:15.597Z,12.92
2018-12-02T14:33:19.185Z,12.93
2018-12-02T14:38:23.304Z,13.18
2018-12-02T14:43:27.403Z,13.12
2018-12-02T14:48:30.745Z,12.94
2018-12-02T14:53:34.872Z,12.92
2018-12-02T14:58:38.268Z,13.01
2018-12-02T15:03:41.646Z,13.02
2018-12-02T15:08:45.000Z,13.11
2018-12-02T15:13:48.373Z,13.40
2018-12-02T15:18:51.736Z,13.22
2018-12-02T15:23:55.124Z,13.19
2018-12-02T15:28:58.479Z,13.38
2018-12-02T15:34:01.833Z,13.48
2018-12-02T15:39:05.217Z,13.42
2018-12-02T15:44:08.573Z,13.20
2018-12-02T15:49:11.928Z,13.43
2018-12-02T15:54:19.170Z,13.24
2018-12-02T15:59:25.922Z,13.13
2018-12-02T16:04:31.080Z,13.07
2018-12-02T16:09:40.398Z,12.89
2018-12-02T16:14:44.699Z,13.08
2018-12-02T16:19:48.061Z,13.25
2018-12-02T16:24:51.413Z,13.22
2018-12-02T16:29:54.773Z,13.19
2018-12-02T16:34:58.924Z,13.39
2018-12-02T16:40:02.398Z,13.43
2018-12-02T16:45:06.588Z,13.30
2018-12-02T16:50:10.013Z,13.55
2018-12-02T16:55:13.377Z,13.40
2018-12-02T17:00:16.722Z,13.28
2018-12-02T17:05:20.078Z,13.43
2018-12-02T17:10:23.419Z,13.58
2018-12-02T17:15:26.794Z,13.31
2018-12-02T17:20:30.198Z,13.31
2018-12-02T17:25:33.556Z,13.54
2018-12-02T17:30:36.905Z,13.59
2018-12-02T17:35:40.261Z,13.32
2018-12-02T17:40:44.384Z,13.39
2018-12-02T17:45:47.724Z,13.34
2018-12-02T17:50:51.110Z,13.24
2018-12-02T17:55:55.218Z,13.12
2018-12-02T18:00:58.579Z,13.19
2018-12-02T18:06:02.033Z,13.04
2018-12-02T18:11:05.413Z,13.15
2018-12-02T18:16:08.780Z,13.22
2018-12-02T18:21:12.158Z,13.24
2018-12-02T18:26:15.499Z,13.29
2018-12-02T18:31:19.625Z,13.17
2018-12-02T18:36:23.009Z,13.23
2018-12-02T18:41:26.973Z,13.46
2018-12-02T18:46:31.144Z,13.33
2018-12-02T18:51:38.943Z,13.34
2018-12-02T18:56:42.298Z,13.37
2018-12-02T19:01:45.993Z,13.40
2018-12-02T19:06:49.383Z,13.26
2018-12-02T19:11:53.504Z,13.62
2018-12-02T19:17:01.921Z,13.71
2018-12-02T19:22:09.313Z,13.83
2018-12-02T19:27:12.673Z,13.70
2018-12-02T19:32:16.018Z,13.72
2018-12-02T19:37:19.349Z,13.73
2018-12-02T19:42:22.743Z,13.75
2018-12-02T19:47:26.927Z,13.77
2018-12-02T19:52:30.524Z,13.82
2018-12-02T19:57:34.651Z,13.88
2018-12-02T20:02:38.006Z,13.88
2018-12-02T20:07:41.403Z,13.98
2018-12-02T20:12:44.807Z,13.84
2018-12-02T20:17:48.924Z,13.97
2018-12-02T20:23:05.027Z,14.06
2018-12-02T20:28:22.959Z,13.94
2018-12-02T20:33:28.251Z,14.07
2018-12-02T20:38:32.657Z,13.91
2018-12-02T20:43:36.018Z,13.89
2018-12-02T20:48:39.370Z,14.00
2018-12-02T20:53:43.286Z,13.92
2018-12-02T20:59:01.509Z,13.84
2018-12-02T21:04:04.876Z,13.81
2018-12-02T21:09:08.297Z,13.93
2018-12-02T21:14:11.647Z,13.77
2018-12-02T21:19:15.049Z,13.93
2018-12-02T21:24:18.421Z,13.88
2018-12-02T21:29:21.773Z,13.72
2018-12-02T21:34:28.849Z,13.63
2018-12-02T21:39:32.995Z,13.90
2018-12-02T21:44:37.107Z,13.85
2018-12-02T21:49:40.460Z,13.95
2018-12-02T21:54:44.005Z,13.83
2018-12-02T21:59:47.348Z,13.86
2018-12-02T22:04:53.417Z,13.97
2018-12-02T22:09:56.785Z,13.78
2018-12-02T22:15:13.372Z,13.66
2018-12-02T22:20:17.493Z,13.48
2018-12-02T22:25:20.860Z,13.79
2018-12-02T22:30:24.269Z,13.50
2018-12-02T22:35:29.547Z,13.40
2018-12-02T22:40:32.916Z,13.40
2018-12-02T22:45:36.259Z,13.33
2018-12-02T22:50:39.601Z,13.00
2018-12-02T22:55:44.002Z,13.02
